sensor_id;sensor_type;location;lat;lon;timestamp;P1;durP1;ratioP1;P2;durP2;ratioP2
42832;SDS011;64089;51.478;5.692;2024-03-29T00:01:45;2.30;;;0.93;;
42832;SDS011;64089;51.478;5.692;2024-03-29T00:04:11;0.45;;;0.45;;
42832;SDS011;64089;51.478;5.692;2024-03-29T00:06:36;0.73;;;0.50;;
42832;SDS011;64089;51.478;5.692;2024-03-29T00:09:02;3.03;;;0.75;;
42832;SDS011;64089;51.478;5.692;2024-03-29T00:11:27;2.30;;;0.75;;
42832;SDS011;64089;51.478;5.692;2024-03-29T00:13:54;3.30;;;0.70;;
42832;SDS011;64089;51.478;5.692;2024-03-29T00:16:19;10.02;;;0.85;;
42832;SDS011;64089;51.478;5.692;2024-03-29T00:18:47;2.97;;;0.70;;
42832;SDS011;64089;51.478;5.692;2024-03-29T00:21:13;1.63;;;1.10;;
42832;SDS011;64089;51.478;5.692;2024-03-29T00:23:39;3.67;;;0.90;;
42832;SDS011;64089;51.478;5.692;2024-03-29T00:26:05;0.90;;;0.60;;
42832;SDS011;64089;51.478;5.692;2024-03-29T00:28:30;4.68;;;0.70;;
42832;SDS011;64089;51.478;5.692;2024-03-29T00:30:56;5.43;;;0.80;;
42832;SDS011;64089;51.478;5.692;2024-03-29T00:33:22;3.92;;;1.15;;
42832;SDS011;64089;51.478;5.692;2024-03-29T00:35:47;0.50;;;0.50;;
42832;SDS011;64089;51.478;5.692;2024-03-29T00:38:13;5.32;;;0.90;;
42832;SDS011;64089;51.478;5.692;2024-03-29T00:40:39;4.85;;;1.23;;
42832;SDS011;64089;51.478;5.692;2024-03-29T00:43:04;5.25;;;0.70;;
42832;SDS011;64089;51.478;5.692;2024-03-29T00:45:30;5.03;;;0.85;;
42832;SDS011;64089;51.478;5.692;2024-03-29T00:47:56;0.93;;;0.68;;
42832;SDS011;64089;51.478;5.692;2024-03-29T00:50:21;8.80;;;1.00;;
42832;SDS011;64089;51.478;5.692;2024-03-29T00:52:47;2.72;;;0.82;;
42832;SDS011;64089;51.478;5.692;2024-03-29T00:55:13;2.17;;;0.82;;
42832;SDS011;64089;51.478;5.692;2024-03-29T00:57:39;1.17;;;0.57;;
42832;SDS011;64089;51.478;5.692;2024-03-29T01:00:05;2.13;;;0.95;;
42832;SDS011;64089;51.478;5.692;2024-03-29T01:02:31;1.23;;;0.80;;
42832;SDS011;64089;51.478;5.692;2024-03-29T01:04:56;0.90;;;0.68;;
42832;SDS011;64089;51.478;5.692;2024-03-29T01:07:22;0.80;;;0.57;;
42832;SDS011;64089;51.478;5.692;2024-03-29T01:09:48;1.90;;;0.93;;
42832;SDS011;64089;51.478;5.692;2024-03-29T01:12:13;1.67;;;0.60;;
42832;SDS011;64089;51.478;5.692;2024-03-29T01:14:39;0.95;;;0.60;;
42832;SDS011;64089;51.478;5.692;2024-03-29T01:17:05;2.25;;;0.60;;
42832;SDS011;64089;51.478;5.692;2024-03-29T01:19:31;2.90;;;0.65;;
42832;SDS011;64089;51.478;5.692;2024-03-29T01:21:57;2.20;;;0.80;;
42832;SDS011;64089;51.478;5.692;2024-03-29T01:24:23;2.08;;;0.70;;
42832;SDS011;64089;51.478;5.692;2024-03-29T01:26:49;1.75;;;0.70;;
42832;SDS011;64089;51.478;5.692;2024-03-29T01:29:15;4.93;;;1.00;;
42832;SDS011;64089;51.478;5.692;2024-03-29T01:31:41;1.45;;;0.82;;
42832;SDS011;64089;51.478;5.692;2024-03-29T01:34:06;0.88;;;0.40;;
42832;SDS011;64089;51.478;5.692;2024-03-29T01:36:32;1.63;;;0.57;;
42832;SDS011;64089;51.478;5.692;2024-03-29T01:38:57;5.90;;;0.70;;
42832;SDS011;64089;51.478;5.692;2024-03-29T01:41:23;1.50;;;0.50;;
42832;SDS011;64089;51.478;5.692;2024-03-29T01:43:51;0.95;;;0.57;;
42832;SDS011;64089;51.478;5.692;2024-03-29T01:46:26;1.08;;;0.60;;
42832;SDS011;64089;51.478;5.692;2024-03-29T01:48:53;1.63;;;0.40;;
42832;SDS011;64089;51.478;5.692;2024-03-29T01:51:20;2.10;;;0.57;;
42832;SDS011;64089;51.478;5.692;2024-03-29T01:53:50;1.35;;;0.52;;
42832;SDS011;64089;51.478;5.692;2024-03-29T01:56:18;4.25;;;0.57;;
42832;SDS011;64089;51.478;5.692;2024-03-29T01:58:45;2.80;;;0.75;;
42832;SDS011;64089;51.478;5.692;2024-03-29T02:01:14;2.42;;;0.82;;
42832;SDS011;64089;51.478;5.692;2024-03-29T02:03:40;1.55;;;0.73;;
42832;SDS011;64089;51.478;5.692;2024-03-29T02:06:06;2.25;;;0.45;;
42832;SDS011;64089;51.478;5.692;2024-03-29T02:08:32;1.20;;;0.60;;
42832;SDS011;64089;51.478;5.692;2024-03-29T02:10:59;0.65;;;0.50;;
42832;SDS011;64089;51.478;5.692;2024-03-29T02:13:25;2.40;;;0.40;;
42832;SDS011;64089;51.478;5.692;2024-03-29T02:15:51;1.92;;;0.65;;
42832;SDS011;64089;51.478;5.692;2024-03-29T02:18:16;1.40;;;0.65;;
42832;SDS011;64089;51.478;5.692;2024-03-29T02:20:42;3.03;;;0.60;;
42832;SDS011;64089;51.478;5.692;2024-03-29T02:23:19;1.55;;;0.68;;
42832;SDS011;64089;51.478;5.692;2024-03-29T02:25:50;3.30;;;0.95;;
42832;SDS011;64089;51.478;5.692;2024-03-29T02:28:15;2.42;;;0.85;;
42832;SDS011;64089;51.478;5.692;2024-03-29T02:30:41;1.45;;;0.70;;
42832;SDS011;64089;51.478;5.692;2024-03-29T02:33:07;1.50;;;0.65;;
42832;SDS011;64089;51.478;5.692;2024-03-29T02:35:32;2.40;;;0.90;;
42832;SDS011;64089;51.478;5.692;2024-03-29T02:37:58;3.47;;;0.60;;
42832;SDS011;64089;51.478;5.692;2024-03-29T02:40:24;0.80;;;0.50;;
42832;SDS011;64089;51.478;5.692;2024-03-29T02:42:49;2.47;;;0.68;;
42832;SDS011;64089;51.478;5.692;2024-03-29T02:45:15;0.73;;;0.50;;
42832;SDS011;64089;51.478;5.692;2024-03-29T02:47:41;1.17;;;0.77;;
42832;SDS011;64089;51.478;5.692;2024-03-29T02:50:08;2.08;;;0.75;;
42832;SDS011;64089;51.478;5.692;2024-03-29T02:52:35;2.55;;;0.70;;
42832;SDS011;64089;51.478;5.692;2024-03-29T02:55:01;0.80;;;0.60;;
42832;SDS011;64089;51.478;5.692;2024-03-29T02:57:26;2.03;;;0.73;;
42832;SDS011;64089;51.478;5.692;2024-03-29T02:59:52;1.35;;;0.45;;
42832;SDS011;64089;51.478;5.692;2024-03-29T03:02:17;0.55;;;0.47;;
42832;SDS011;64089;51.478;5.692;2024-03-29T03:04:43;0.73;;;0.45;;
42832;SDS011;64089;51.478;5.692;2024-03-29T03:07:09;0.65;;;0.45;;
42832;SDS011;64089;51.478;5.692;2024-03-29T03:09:53;0.68;;;0.50;;
42832;SDS011;64089;51.478;5.692;2024-03-29T03:12:37;0.50;;;0.50;;
42832;SDS011;64089;51.478;5.692;2024-03-29T03:15:03;4.97;;;1.10;;
42832;SDS011;64089;51.478;5.692;2024-03-29T03:17:29;1.65;;;0.65;;
42832;SDS011;64089;51.478;5.692;2024-03-29T03:19:56;1.40;;;0.77;;
42832;SDS011;64089;51.478;5.692;2024-03-29T03:22:22;1.35;;;0.55;;
42832;SDS011;64089;51.478;5.692;2024-03-29T03:24:47;4.57;;;1.08;;
42832;SDS011;64089;51.478;5.692;2024-03-29T03:27:13;4.53;;;0.80;;
42832;SDS011;64089;51.478;5.692;2024-03-29T03:29:39;1.05;;;0.50;;
42832;SDS011;64089;51.478;5.692;2024-03-29T03:32:05;0.90;;;0.50;;
42832;SDS011;64089;51.478;5.692;2024-03-29T03:34:31;0.60;;;0.60;;
42832;SDS011;64089;51.478;5.692;2024-03-29T03:36:58;2.58;;;1.00;;
42832;SDS011;64089;51.478;5.692;2024-03-29T03:39:23;0.90;;;0.70;;
42832;SDS011;64089;51.478;5.692;2024-03-29T03:41:49;1.10;;;0.60;;
42832;SDS011;64089;51.478;5.692;2024-03-29T03:44:15;0.85;;;0.50;;
42832;SDS011;64089;51.478;5.692;2024-03-29T03:46:41;1.05;;;0.63;;
42832;SDS011;64089;51.478;5.692;2024-03-29T03:49:06;1.48;;;0.90;;
42832;SDS011;64089;51.478;5.692;2024-03-29T03:51:32;0.80;;;0.50;;
42832;SDS011;64089;51.478;5.692;2024-03-29T03:53:57;1.33;;;0.40;;
42832;SDS011;64089;51.478;5.692;2024-03-29T03:56:23;2.72;;;0.40;;
42832;SDS011;64089;51.478;5.692;2024-03-29T03:58:49;2.38;;;0.40;;
42832;SDS011;64089;51.478;5.692;2024-03-29T04:01:14;1.75;;;0.63;;
42832;SDS011;64089;51.478;5.692;2024-03-29T04:03:40;1.10;;;0.98;;
42832;SDS011;64089;51.478;5.692;2024-03-29T04:06:06;1.67;;;0.70;;
42832;SDS011;64089;51.478;5.692;2024-03-29T04:08:32;2.67;;;0.57;;
42832;SDS011;64089;51.478;5.692;2024-03-29T04:10:57;2.85;;;0.82;;
42832;SDS011;64089;51.478;5.692;2024-03-29T04:13:27;0.70;;;0.45;;
42832;SDS011;64089;51.478;5.692;2024-03-29T04:15:52;1.48;;;0.60;;
42832;SDS011;64089;51.478;5.692;2024-03-29T04:18:18;5.88;;;0.63;;
42832;SDS011;64089;51.478;5.692;2024-03-29T04:20:43;1.75;;;0.68;;
42832;SDS011;64089;51.478;5.692;2024-03-29T04:23:09;1.77;;;0.68;;
42832;SDS011;64089;51.478;5.692;2024-03-29T04:25:34;0.82;;;0.57;;
42832;SDS011;64089;51.478;5.692;2024-03-29T04:28:00;2.25;;;0.73;;
42832;SDS011;64089;51.478;5.692;2024-03-29T04:30:25;1.50;;;0.60;;
42832;SDS011;64089;51.478;5.692;2024-03-29T04:32:51;3.70;;;0.93;;
42832;SDS011;64089;51.478;5.692;2024-03-29T04:35:17;1.50;;;0.63;;
42832;SDS011;64089;51.478;5.692;2024-03-29T04:37:42;0.68;;;0.60;;
42832;SDS011;64089;51.478;5.692;2024-03-29T04:40:08;4.03;;;0.90;;
42832;SDS011;64089;51.478;5.692;2024-03-29T04:42:34;2.55;;;0.70;;
42832;SDS011;64089;51.478;5.692;2024-03-29T04:44:59;4.82;;;0.70;;
42832;SDS011;64089;51.478;5.692;2024-03-29T04:47:26;5.95;;;0.65;;
42832;SDS011;64089;51.478;5.692;2024-03-29T04:49:51;2.15;;;0.70;;
42832;SDS011;64089;51.478;5.692;2024-03-29T04:52:17;3.65;;;0.65;;
42832;SDS011;64089;51.478;5.692;2024-03-29T04:54:42;1.35;;;0.65;;
42832;SDS011;64089;51.478;5.692;2024-03-29T04:57:09;3.38;;;1.00;;
42832;SDS011;64089;51.478;5.692;2024-03-29T04:59:34;3.47;;;0.88;;
42832;SDS011;64089;51.478;5.692;2024-03-29T05:02:00;1.73;;;0.60;;
42832;SDS011;64089;51.478;5.692;2024-03-29T05:04:26;2.20;;;0.57;;
42832;SDS011;64089;51.478;5.692;2024-03-29T05:09:17;2.03;;;0.88;;
42832;SDS011;64089;51.478;5.692;2024-03-29T05:11:43;1.23;;;0.60;;
42832;SDS011;64089;51.478;5.692;2024-03-29T05:14:08;1.65;;;0.63;;
42832;SDS011;64089;51.478;5.692;2024-03-29T05:16:35;2.28;;;0.40;;
42832;SDS011;64089;51.478;5.692;2024-03-29T05:19:00;0.90;;;0.50;;
42832;SDS011;64089;51.478;5.692;2024-03-29T05:21:26;0.45;;;0.45;;
42832;SDS011;64089;51.478;5.692;2024-03-29T05:23:52;0.98;;;0.88;;
42832;SDS011;64089;51.478;5.692;2024-03-29T05:26:18;2.63;;;0.95;;
42832;SDS011;64089;51.478;5.692;2024-03-29T05:28:44;2.13;;;1.10;;
42832;SDS011;64089;51.478;5.692;2024-03-29T05:31:13;4.45;;;1.20;;
42832;SDS011;64089;51.478;5.692;2024-03-29T05:33:42;0.60;;;0.60;;
42832;SDS011;64089;51.478;5.692;2024-03-29T05:36:09;2.47;;;0.90;;
42832;SDS011;64089;51.478;5.692;2024-03-29T05:38:37;1.13;;;0.90;;
42832;SDS011;64089;51.478;5.692;2024-03-29T05:41:03;3.50;;;0.98;;
42832;SDS011;64089;51.478;5.692;2024-03-29T05:43:29;2.63;;;0.88;;
42832;SDS011;64089;51.478;5.692;2024-03-29T05:45:55;0.60;;;0.50;;
42832;SDS011;64089;51.478;5.692;2024-03-29T05:48:20;1.70;;;0.70;;
42832;SDS011;64089;51.478;5.692;2024-03-29T05:50:46;1.88;;;0.70;;
42832;SDS011;64089;51.478;5.692;2024-03-29T05:53:11;0.75;;;0.50;;
42832;SDS011;64089;51.478;5.692;2024-03-29T05:55:37;1.25;;;0.55;;
42832;SDS011;64089;51.478;5.692;2024-03-29T05:58:03;1.55;;;0.63;;
42832;SDS011;64089;51.478;5.692;2024-03-29T06:00:31;2.13;;;0.75;;
42832;SDS011;64089;51.478;5.692;2024-03-29T06:02:59;0.82;;;0.60;;
42832;SDS011;64089;51.478;5.692;2024-03-29T06:05:27;2.85;;;1.02;;
42832;SDS011;64089;51.478;5.692;2024-03-29T06:07:53;1.05;;;0.60;;
42832;SDS011;64089;51.478;5.692;2024-03-29T06:10:18;0.40;;;0.40;;
42832;SDS011;64089;51.478;5.692;2024-03-29T06:12:44;1.42;;;0.80;;
42832;SDS011;64089;51.478;5.692;2024-03-29T06:15:10;2.28;;;0.75;;
42832;SDS011;64089;51.478;5.692;2024-03-29T06:17:54;3.33;;;0.93;;
42832;SDS011;64089;51.478;5.692;2024-03-29T06:20:20;1.73;;;0.70;;
42832;SDS011;64089;51.478;5.692;2024-03-29T06:22:46;10.65;;;1.17;;
42832;SDS011;64089;51.478;5.692;2024-03-29T06:25:11;2.15;;;1.00;;
42832;SDS011;64089;51.478;5.692;2024-03-29T06:27:37;0.98;;;0.80;;
42832;SDS011;64089;51.478;5.692;2024-03-29T06:30:04;1.85;;;0.98;;
42832;SDS011;64089;51.478;5.692;2024-03-29T06:32:31;1.77;;;1.10;;
42832;SDS011;64089;51.478;5.692;2024-03-29T06:34:57;0.98;;;0.60;;
42832;SDS011;64089;51.478;5.692;2024-03-29T06:37:24;1.35;;;0.73;;
42832;SDS011;64089;51.478;5.692;2024-03-29T06:39:50;3.15;;;0.60;;
42832;SDS011;64089;51.478;5.692;2024-03-29T06:42:16;4.05;;;0.80;;
42832;SDS011;64089;51.478;5.692;2024-03-29T06:44:42;0.63;;;0.63;;
42832;SDS011;64089;51.478;5.692;2024-03-29T06:47:08;3.08;;;0.75;;
42832;SDS011;64089;51.478;5.692;2024-03-29T06:49:34;2.55;;;1.00;;
42832;SDS011;64089;51.478;5.692;2024-03-29T06:52:00;1.52;;;1.05;;
42832;SDS011;64089;51.478;5.692;2024-03-29T06:54:26;2.47;;;0.60;;
42832;SDS011;64089;51.478;5.692;2024-03-29T06:56:55;1.75;;;0.90;;
42832;SDS011;64089;51.478;5.692;2024-03-29T06:59:22;2.15;;;1.00;;
42832;SDS011;64089;51.478;5.692;2024-03-29T07:01:48;4.10;;;2.60;;
42832;SDS011;64089;51.478;5.692;2024-03-29T07:04:17;2.58;;;1.75;;
42832;SDS011;64089;51.478;5.692;2024-03-29T07:06:44;2.72;;;1.05;;
42832;SDS011;64089;51.478;5.692;2024-03-29T07:09:12;2.13;;;0.82;;
42832;SDS011;64089;51.478;5.692;2024-03-29T07:11:39;2.65;;;0.90;;
42832;SDS011;64089;51.478;5.692;2024-03-29T07:14:04;1.77;;;1.00;;
42832;SDS011;64089;51.478;5.692;2024-03-29T07:16:30;1.80;;;1.10;;
42832;SDS011;64089;51.478;5.692;2024-03-29T07:18:56;2.20;;;1.23;;
42832;SDS011;64089;51.478;5.692;2024-03-29T07:21:21;3.25;;;1.50;;
42832;SDS011;64089;51.478;5.692;2024-03-29T07:23:47;1.65;;;1.10;;
42832;SDS011;64089;51.478;5.692;2024-03-29T07:26:12;1.30;;;0.95;;
42832;SDS011;64089;51.478;5.692;2024-03-29T07:28:38;2.72;;;1.02;;
42832;SDS011;64089;51.478;5.692;2024-03-29T07:31:04;1.77;;;1.00;;
42832;SDS011;64089;51.478;5.692;2024-03-29T07:33:34;2.30;;;1.27;;
42832;SDS011;64089;51.478;5.692;2024-03-29T07:36:00;1.50;;;1.00;;
42832;SDS011;64089;51.478;5.692;2024-03-29T07:38:25;4.88;;;1.25;;
42832;SDS011;64089;51.478;5.692;2024-03-29T07:40:51;2.15;;;1.10;;
42832;SDS011;64089;51.478;5.692;2024-03-29T07:43:21;3.53;;;0.80;;
42832;SDS011;64089;51.478;5.692;2024-03-29T07:45:47;2.40;;;1.15;;
42832;SDS011;64089;51.478;5.692;2024-03-29T07:48:13;1.48;;;0.98;;
42832;SDS011;64089;51.478;5.692;2024-03-29T07:50:44;0.70;;;0.63;;
42832;SDS011;64089;51.478;5.692;2024-03-29T07:53:10;3.25;;;0.98;;
42832;SDS011;64089;51.478;5.692;2024-03-29T07:55:39;0.98;;;0.90;;
42832;SDS011;64089;51.478;5.692;2024-03-29T07:58:08;4.35;;;1.30;;
42832;SDS011;64089;51.478;5.692;2024-03-29T08:00:35;1.48;;;0.80;;
42832;SDS011;64089;51.478;5.692;2024-03-29T08:03:04;0.80;;;0.77;;
42832;SDS011;64089;51.478;5.692;2024-03-29T08:05:29;6.68;;;0.80;;
42832;SDS011;64089;51.478;5.692;2024-03-29T08:07:55;6.03;;;1.08;;
42832;SDS011;64089;51.478;5.692;2024-03-29T08:10:21;1.42;;;0.70;;
42832;SDS011;64089;51.478;5.692;2024-03-29T08:12:47;1.63;;;1.08;;
42832;SDS011;64089;51.478;5.692;2024-03-29T08:15:13;3.03;;;0.90;;
42832;SDS011;64089;51.478;5.692;2024-03-29T08:17:39;1.42;;;0.98;;
42832;SDS011;64089;51.478;5.692;2024-03-29T08:20:04;1.73;;;1.00;;
42832;SDS011;64089;51.478;5.692;2024-03-29T08:22:30;0.93;;;0.88;;
42832;SDS011;64089;51.478;5.692;2024-03-29T08:24:58;5.65;;;1.70;;
42832;SDS011;64089;51.478;5.692;2024-03-29T08:27:25;2.50;;;1.33;;
42832;SDS011;64089;51.478;5.692;2024-03-29T08:29:51;2.80;;;1.20;;
42832;SDS011;64089;51.478;5.692;2024-03-29T08:32:17;2.67;;;1.20;;
42832;SDS011;64089;51.478;5.692;2024-03-29T08:34:42;4.13;;;0.95;;
42832;SDS011;64089;51.478;5.692;2024-03-29T08:37:08;5.70;;;1.63;;
42832;SDS011;64089;51.478;5.692;2024-03-29T08:39:33;2.78;;;1.42;;
42832;SDS011;64089;51.478;5.692;2024-03-29T08:42:00;3.03;;;1.38;;
42832;SDS011;64089;51.478;5.692;2024-03-29T08:44:33;2.83;;;1.30;;
42832;SDS011;64089;51.478;5.692;2024-03-29T08:46:59;3.05;;;1.15;;
42832;SDS011;64089;51.478;5.692;2024-03-29T08:49:28;4.45;;;1.23;;
42832;SDS011;64089;51.478;5.692;2024-03-29T08:51:54;7.90;;;1.85;;
42832;SDS011;64089;51.478;5.692;2024-03-29T08:54:20;2.08;;;0.93;;
42832;SDS011;64089;51.478;5.692;2024-03-29T08:56:46;2.28;;;1.13;;
42832;SDS011;64089;51.478;5.692;2024-03-29T08:59:12;2.35;;;1.33;;
42832;SDS011;64089;51.478;5.692;2024-03-29T09:01:41;2.50;;;1.55;;
42832;SDS011;64089;51.478;5.692;2024-03-29T09:04:07;1.45;;;0.85;;
42832;SDS011;64089;51.478;5.692;2024-03-29T09:06:36;1.65;;;1.13;;
42832;SDS011;64089;51.478;5.692;2024-03-29T09:09:02;1.25;;;1.10;;
42832;SDS011;64089;51.478;5.692;2024-03-29T09:11:28;1.98;;;1.15;;
42832;SDS011;64089;51.478;5.692;2024-03-29T09:13:54;8.38;;;1.35;;
42832;SDS011;64089;51.478;5.692;2024-03-29T09:16:21;1.38;;;0.82;;
42832;SDS011;64089;51.478;5.692;2024-03-29T09:18:47;1.20;;;1.00;;
42832;SDS011;64089;51.478;5.692;2024-03-29T09:21:12;1.10;;;1.00;;
42832;SDS011;64089;51.478;5.692;2024-03-29T09:23:38;2.88;;;1.10;;
42832;SDS011;64089;51.478;5.692;2024-03-29T09:26:06;1.83;;;1.20;;
42832;SDS011;64089;51.478;5.692;2024-03-29T09:28:32;3.25;;;0.98;;
42832;SDS011;64089;51.478;5.692;2024-03-29T09:31:00;1.20;;;0.93;;
42832;SDS011;64089;51.478;5.692;2024-03-29T09:33:27;2.88;;;1.45;;
42832;SDS011;64089;51.478;5.692;2024-03-29T09:35:52;3.63;;;1.48;;
42832;SDS011;64089;51.478;5.692;2024-03-29T09:38:19;3.83;;;1.58;;
42832;SDS011;64089;51.478;5.692;2024-03-29T09:40:45;1.98;;;1.02;;
42832;SDS011;64089;51.478;5.692;2024-03-29T09:43:11;2.10;;;1.30;;
42832;SDS011;64089;51.478;5.692;2024-03-29T09:45:41;2.38;;;1.25;;
42832;SDS011;64089;51.478;5.692;2024-03-29T09:48:08;1.73;;;1.17;;
42832;SDS011;64089;51.478;5.692;2024-03-29T09:50:34;1.05;;;0.80;;
42832;SDS011;64089;51.478;5.692;2024-03-29T09:53:01;1.20;;;0.98;;
42832;SDS011;64089;51.478;5.692;2024-03-29T09:55:27;20.35;;;8.50;;
42832;SDS011;64089;51.478;5.692;2024-03-29T09:57:54;12.10;;;5.78;;
42832;SDS011;64089;51.478;5.692;2024-03-29T10:00:20;19.08;;;7.85;;
42832;SDS011;64089;51.478;5.692;2024-03-29T10:02:46;6.82;;;2.38;;
42832;SDS011;64089;51.478;5.692;2024-03-29T10:05:15;2.10;;;1.55;;
42832;SDS011;64089;51.478;5.692;2024-03-29T10:07:41;1.27;;;1.17;;
42832;SDS011;64089;51.478;5.692;2024-03-29T10:10:10;1.25;;;0.95;;
42832;SDS011;64089;51.478;5.692;2024-03-29T10:12:36;1.95;;;0.95;;
42832;SDS011;64089;51.478;5.692;2024-03-29T10:15:03;2.38;;;1.00;;
42832;SDS011;64089;51.478;5.692;2024-03-29T10:17:46;3.63;;;0.93;;
42832;SDS011;64089;51.478;5.692;2024-03-29T10:20:17;2.53;;;1.00;;
42832;SDS011;64089;51.478;5.692;2024-03-29T10:22:43;1.30;;;0.82;;
42832;SDS011;64089;51.478;5.692;2024-03-29T10:25:10;0.70;;;0.70;;
42832;SDS011;64089;51.478;5.692;2024-03-29T10:27:36;3.10;;;0.90;;
42832;SDS011;64089;51.478;5.692;2024-03-29T10:30:06;0.82;;;0.70;;
42832;SDS011;64089;51.478;5.692;2024-03-29T10:32:34;2.60;;;0.80;;
42832;SDS011;64089;51.478;5.692;2024-03-29T10:35:02;2.28;;;0.80;;
42832;SDS011;64089;51.478;5.692;2024-03-29T10:37:28;0.73;;;0.70;;
42832;SDS011;64089;51.478;5.692;2024-03-29T10:39:54;1.17;;;0.80;;
42832;SDS011;64089;51.478;5.692;2024-03-29T10:42:22;2.42;;;0.75;;
42832;SDS011;64089;51.478;5.692;2024-03-29T10:44:50;1.13;;;0.70;;
42832;SDS011;64089;51.478;5.692;2024-03-29T10:47:18;0.93;;;0.70;;
42832;SDS011;64089;51.478;5.692;2024-03-29T10:49:49;0.60;;;0.50;;
42832;SDS011;64089;51.478;5.692;2024-03-29T10:52:19;1.17;;;0.68;;
42832;SDS011;64089;51.478;5.692;2024-03-29T10:54:47;0.50;;;0.50;;
42832;SDS011;64089;51.478;5.692;2024-03-29T10:57:22;1.52;;;0.80;;
42832;SDS011;64089;51.478;5.692;2024-03-29T11:00:03;1.80;;;0.80;;
42832;SDS011;64089;51.478;5.692;2024-03-29T11:02:35;2.22;;;0.73;;
42832;SDS011;64089;51.478;5.692;2024-03-29T11:05:14;1.65;;;0.70;;
42832;SDS011;64089;51.478;5.692;2024-03-29T11:07:41;1.40;;;0.90;;
42832;SDS011;64089;51.478;5.692;2024-03-29T11:10:20;3.40;;;1.05;;
42832;SDS011;64089;51.478;5.692;2024-03-29T11:15:46;1.08;;;0.75;;
42832;SDS011;64089;51.478;5.692;2024-03-29T11:18:13;0.98;;;0.80;;
42832;SDS011;64089;51.478;5.692;2024-03-29T11:20:42;1.05;;;0.65;;
42832;SDS011;64089;51.478;5.692;2024-03-29T11:23:16;3.00;;;0.77;;
42832;SDS011;64089;51.478;5.692;2024-03-29T11:25:53;0.63;;;0.57;;
42832;SDS011;64089;51.478;5.692;2024-03-29T11:28:29;0.65;;;0.57;;
42832;SDS011;64089;51.478;5.692;2024-03-29T11:30:58;0.80;;;0.68;;
42832;SDS011;64089;51.478;5.692;2024-03-29T11:33:28;0.63;;;0.55;;
42832;SDS011;64089;51.478;5.692;2024-03-29T11:36:14;0.60;;;0.50;;
42832;SDS011;64089;51.478;5.692;2024-03-29T11:38:42;0.65;;;0.60;;
42832;SDS011;64089;51.478;5.692;2024-03-29T11:41:11;3.40;;;0.73;;
42832;SDS011;64089;51.478;5.692;2024-03-29T11:43:43;0.40;;;0.40;;
42832;SDS011;64089;51.478;5.692;2024-03-29T11:46:10;0.85;;;0.40;;
42832;SDS011;64089;51.478;5.692;2024-03-29T11:48:37;0.85;;;0.68;;
42832;SDS011;64089;51.478;5.692;2024-03-29T11:51:07;0.45;;;0.43;;
42832;SDS011;64089;51.478;5.692;2024-03-29T11:53:36;0.50;;;0.40;;
42832;SDS011;64089;51.478;5.692;2024-03-29T11:56:03;1.20;;;0.38;;
42832;SDS011;64089;51.478;5.692;2024-03-29T11:58:30;0.30;;;0.30;;
42832;SDS011;64089;51.478;5.692;2024-03-29T12:00:57;0.55;;;0.32;;
42832;SDS011;64089;51.478;5.692;2024-03-29T12:03:24;0.63;;;0.40;;
42832;SDS011;64089;51.478;5.692;2024-03-29T12:05:51;0.40;;;0.40;;
42832;SDS011;64089;51.478;5.692;2024-03-29T12:08:19;4.15;;;2.38;;
42832;SDS011;64089;51.478;5.692;2024-03-29T12:10:45;8.57;;;3.03;;
42832;SDS011;64089;51.478;5.692;2024-03-29T12:13:11;10.80;;;5.65;;
42832;SDS011;64089;51.478;5.692;2024-03-29T12:15:39;3.78;;;2.17;;
42832;SDS011;64089;51.478;5.692;2024-03-29T12:18:06;0.52;;;0.52;;
42832;SDS011;64089;51.478;5.692;2024-03-29T12:20:32;0.40;;;0.40;;
42832;SDS011;64089;51.478;5.692;2024-03-29T12:22:58;0.30;;;0.30;;
42832;SDS011;64089;51.478;5.692;2024-03-29T12:25:31;0.38;;;0.38;;
42832;SDS011;64089;51.478;5.692;2024-03-29T12:27:58;1.48;;;0.60;;
42832;SDS011;64089;51.478;5.692;2024-03-29T12:30:25;2.63;;;1.50;;
42832;SDS011;64089;51.478;5.692;2024-03-29T12:33:07;3.08;;;0.55;;
42832;SDS011;64089;51.478;5.692;2024-03-29T12:35:37;0.50;;;0.28;;
42832;SDS011;64089;51.478;5.692;2024-03-29T12:38:03;0.40;;;0.40;;
42832;SDS011;64089;51.478;5.692;2024-03-29T12:40:30;1.10;;;0.47;;
42832;SDS011;64089;51.478;5.692;2024-03-29T12:43:02;0.28;;;0.28;;
42832;SDS011;64089;51.478;5.692;2024-03-29T12:45:28;0.47;;;0.32;;
42832;SDS011;64089;51.478;5.692;2024-03-29T12:47:54;1.27;;;0.40;;
42832;SDS011;64089;51.478;5.692;2024-03-29T12:50:29;4.03;;;0.63;;
42832;SDS011;64089;51.478;5.692;2024-03-29T12:52:57;0.40;;;0.40;;
42832;SDS011;64089;51.478;5.692;2024-03-29T12:55:24;3.42;;;0.47;;
42832;SDS011;64089;51.478;5.692;2024-03-29T12:58:00;1.52;;;0.70;;
42832;SDS011;64089;51.478;5.692;2024-03-29T13:00:29;0.40;;;0.40;;
42832;SDS011;64089;51.478;5.692;2024-03-29T13:02:55;0.40;;;0.40;;
42832;SDS011;64089;51.478;5.692;2024-03-29T13:05:20;0.82;;;0.57;;
42832;SDS011;64089;51.478;5.692;2024-03-29T13:07:47;2.08;;;0.63;;
42832;SDS011;64089;51.478;5.692;2024-03-29T13:10:12;0.30;;;0.30;;
42832;SDS011;64089;51.478;5.692;2024-03-29T13:12:42;8.77;;;0.77;;
42832;SDS011;64089;51.478;5.692;2024-03-29T13:15:19;0.57;;;0.57;;
42832;SDS011;64089;51.478;5.692;2024-03-29T13:17:46;0.50;;;0.40;;
42832;SDS011;64089;51.478;5.692;2024-03-29T13:20:13;0.45;;;0.45;;
42832;SDS011;64089;51.478;5.692;2024-03-29T13:22:43;1.27;;;0.77;;
42832;SDS011;64089;51.478;5.692;2024-03-29T13:25:14;3.10;;;0.50;;
42832;SDS011;64089;51.478;5.692;2024-03-29T13:27:44;1.15;;;0.73;;
42832;SDS011;64089;51.478;5.692;2024-03-29T13:30:11;0.52;;;0.38;;
42832;SDS011;64089;51.478;5.692;2024-03-29T13:32:43;0.45;;;0.40;;
42832;SDS011;64089;51.478;5.692;2024-03-29T13:35:11;6.03;;;1.25;;
42832;SDS011;64089;51.478;5.692;2024-03-29T13:37:41;1.55;;;0.60;;
42832;SDS011;64089;51.478;5.692;2024-03-29T13:40:14;0.30;;;0.30;;
42832;SDS011;64089;51.478;5.692;2024-03-29T13:42:41;0.77;;;0.50;;
42832;SDS011;64089;51.478;5.692;2024-03-29T13:45:07;0.47;;;0.47;;
42832;SDS011;64089;51.478;5.692;2024-03-29T13:47:39;0.95;;;0.52;;
42832;SDS011;64089;51.478;5.692;2024-03-29T13:50:05;1.45;;;0.60;;
42832;SDS011;64089;51.478;5.692;2024-03-29T13:52:32;1.10;;;0.57;;
42832;SDS011;64089;51.478;5.692;2024-03-29T13:54:58;0.88;;;0.77;;
42832;SDS011;64089;51.478;5.692;2024-03-29T13:57:25;1.40;;;0.40;;
42832;SDS011;64089;51.478;5.692;2024-03-29T13:59:50;0.47;;;0.40;;
42832;SDS011;64089;51.478;5.692;2024-03-29T14:02:16;0.43;;;0.40;;
42832;SDS011;64089;51.478;5.692;2024-03-29T14:04:43;0.60;;;0.40;;
42832;SDS011;64089;51.478;5.692;2024-03-29T14:07:09;1.05;;;0.60;;
42832;SDS011;64089;51.478;5.692;2024-03-29T14:09:37;0.47;;;0.47;;
42832;SDS011;64089;51.478;5.692;2024-03-29T14:12:04;3.20;;;0.57;;
42832;SDS011;64089;51.478;5.692;2024-03-29T14:14:30;0.35;;;0.32;;
42832;SDS011;64089;51.478;5.692;2024-03-29T14:16:56;1.98;;;0.55;;
42832;SDS011;64089;51.478;5.692;2024-03-29T14:19:22;0.20;;;0.20;;
42832;SDS011;64089;51.478;5.692;2024-03-29T14:21:49;7.22;;;0.50;;
42832;SDS011;64089;51.478;5.692;2024-03-29T14:24:14;0.30;;;0.30;;
42832;SDS011;64089;51.478;5.692;2024-03-29T14:26:40;1.67;;;0.50;;
42832;SDS011;64089;51.478;5.692;2024-03-29T14:29:09;0.60;;;0.50;;
42832;SDS011;64089;51.478;5.692;2024-03-29T14:31:37;1.17;;;0.50;;
42832;SDS011;64089;51.478;5.692;2024-03-29T14:34:03;0.40;;;0.40;;
42832;SDS011;64089;51.478;5.692;2024-03-29T14:36:28;1.23;;;0.82;;
42832;SDS011;64089;51.478;5.692;2024-03-29T14:38:57;3.53;;;0.40;;
42832;SDS011;64089;51.478;5.692;2024-03-29T14:41:25;0.85;;;0.45;;
42832;SDS011;64089;51.478;5.692;2024-03-29T14:43:51;0.98;;;0.68;;
42832;SDS011;64089;51.478;5.692;2024-03-29T14:46:17;0.98;;;0.50;;
42832;SDS011;64089;51.478;5.692;2024-03-29T14:48:43;0.38;;;0.30;;
42832;SDS011;64089;51.478;5.692;2024-03-29T14:51:08;0.50;;;0.40;;
42832;SDS011;64089;51.478;5.692;2024-03-29T14:53:34;0.90;;;0.40;;